createdAt,value
2018-12-20T08:47:16.846Z,131.23
2018-12-20T08:51:15.340Z,164.27
2018-12-20T08:56:24.012Z,153.67
2018-12-20T08:58:51.481Z,167.13
2018-12-20T09:01:18.987Z,166.33
2018-12-20T09:03:46.585Z,168.33
2018-12-20T09:06:14.064Z,164.80
2018-12-20T09:08:42.137Z,169.97
2018-12-20T09:11:09.613Z,162.73
2018-12-20T09:13:37.125Z,162.33
2018-12-20T09:16:04.921Z,156.27
2018-12-20T09:18:32.434Z,162.53
2018-12-20T09:20:59.896Z,163.17
2018-12-20T09:23:27.612Z,163.37
2018-12-20T09:25:55.098Z,157.13
2018-12-20T09:28:22.771Z,169.23
2018-12-20T09:30:50.588Z,176.20
2018-12-20T09:33:18.230Z,164.73
2018-12-20T09:35:46.280Z,162.27
2018-12-20T09:38:13.829Z,159.30
2018-12-20T09:40:41.779Z,172.77
2018-12-20T09:43:09.429Z,158.00
2018-12-20T09:45:37.048Z,164.77
2018-12-20T09:48:05.748Z,164.83
2018-12-20T09:50:34.928Z,177.50
2018-12-20T09:53:02.630Z,177.97
2018-12-20T09:55:30.502Z,161.80
2018-12-20T09:57:58.321Z,167.50
2018-12-20T10:00:26.320Z,163.10
2018-12-20T10:02:54.777Z,163.37
2018-12-20T10:05:23.673Z,177.17
2018-12-20T10:07:52.086Z,169.43
2018-12-20T10:10:20.629Z,181.07
2018-12-20T10:12:48.661Z,164.03
2018-12-20T10:15:16.763Z,184.60
2018-12-20T10:17:44.856Z,153.20
2018-12-20T10:20:17.372Z,143.43
2018-12-20T10:22:46.479Z,147.73
2018-12-20T10:25:15.387Z,150.10
2018-12-20T10:27:43.356Z,152.30
2018-12-20T10:30:12.636Z,153.23
2018-12-20T10:32:40.895Z,144.93
2018-12-20T10:35:13.171Z,141.20
2018-12-20T10:37:41.579Z,152.93
2018-12-20T10:40:11.544Z,146.47
2018-12-20T10:42:39.787Z,142.97
2018-12-20T10:45:08.867Z,151.90
2018-12-20T10:47:37.141Z,138.00
2018-12-20T10:50:06.237Z,147.53
2018-12-20T10:52:33.784Z,142.40
2018-12-20T10:55:01.730Z,148.57
2018-12-20T10:57:29.598Z,172.30
2018-12-20T10:59:57.334Z,165.47
2018-12-20T11:02:30.554Z,163.83
2018-12-20T11:05:01.602Z,175.93
2018-12-20T11:07:35.132Z,181.53
2018-12-20T11:10:08.898Z,180.93
2018-12-20T11:12:42.069Z,170.80
2018-12-20T11:15:09.968Z,176.03
2018-12-20T11:17:37.811Z,193.83
2018-12-20T11:20:05.783Z,195.73
2018-12-20T11:22:33.524Z,185.80
2018-12-20T11:25:01.210Z,181.97
2018-12-20T11:27:29.405Z,185.53
2018-12-20T11:29:57.408Z,169.83
2018-12-20T11:32:24.962Z,183.83
2018-12-20T11:34:52.598Z,223.27
2018-12-20T11:37:20.201Z,179.47
2018-12-20T11:39:47.680Z,191.13
2018-12-20T11:42:15.854Z,188.23
2018-12-20T11:44:43.416Z,201.77
2018-12-20T11:47:16.968Z,192.03
2018-12-20T11:49:45.024Z,200.40
2018-12-20T11:52:12.663Z,184.77
2018-12-20T11:54:40.224Z,184.10
2018-12-20T11:57:07.690Z,182.23
2018-12-20T11:59:35.232Z,188.23
2018-12-20T12:02:02.784Z,171.27
2018-12-20T12:04:30.268Z,163.43
2018-12-20T12:06:57.772Z,182.23
2018-12-20T12:09:25.332Z,182.27
2018-12-20T12:11:52.993Z,157.00
2018-12-20T12:14:20.538Z,160.80
2018-12-20T12:16:48.602Z,153.80
2018-12-20T12:19:16.105Z,129.80
2018-12-20T12:21:43.622Z,120.23
2018-12-20T12:24:11.132Z,121.47
2018-12-20T12:26:38.705Z,115.50
2018-12-20T12:29:06.509Z,103.07
2018-12-20T12:31:33.992Z,98.53
2018-12-20T12:34:02.097Z,97.80
2018-12-20T12:36:29.616Z,98.70
2018-12-20T12:38:57.662Z,113.63
2018-12-20T12:41:25.172Z,99.30
2018-12-20T12:43:52.735Z,90.00
2018-12-20T12:46:20.260Z,90.50
2018-12-20T12:48:47.859Z,92.33
2018-12-20T12:51:15.449Z,88.23
2018-12-20T12:53:43.075Z,77.83
2018-12-20T12:56:11.213Z,80.63
2018-12-20T12:58:38.866Z,84.83
2018-12-20T13:01:06.477Z,87.73
2018-12-20T13:03:34.352Z,99.33
2018-12-20T13:06:02.118Z,105.67
2018-12-20T13:08:29.724Z,81.70
2018-12-20T13:10:58.480Z,85.77
2018-12-20T13:13:26.179Z,75.73
2018-12-20T13:15:53.683Z,70.60
2018-12-20T13:18:21.212Z,69.40
2018-12-20T13:20:49.000Z,62.90
2018-12-20T13:23:16.556Z,74.33
2018-12-20T13:25:44.534Z,66.97
2018-12-20T13:28:12.029Z,66.30
2018-12-20T13:30:39.544Z,71.70
2018-12-20T13:33:07.389Z,66.70
2018-12-20T13:35:34.908Z,65.57
2018-12-20T13:38:02.689Z,62.63
2018-12-20T13:40:31.495Z,64.20
2018-12-20T13:42:59.301Z,58.27
2018-12-20T13:45:26.917Z,69.50
2018-12-20T13:47:54.821Z,75.33
2018-12-20T13:50:22.514Z,75.37
2018-12-20T13:52:50.216Z,73.03
2018-12-20T13:55:17.923Z,63.70
2018-12-20T13:57:45.551Z,73.47
2018-12-20T14:00:15.346Z,64.67
2018-12-20T14:02:43.621Z,73.40
2018-12-20T14:05:11.267Z,78.63
2018-12-20T14:07:39.296Z,72.60
2018-12-20T14:10:07.956Z,72.63
2018-12-20T14:12:35.497Z,74.37
2018-12-20T14:15:03.749Z,78.63
2018-12-20T14:17:31.344Z,78.17
2018-12-20T14:19:59.273Z,70.47
2018-12-20T14:22:26.954Z,68.73
2018-12-20T14:24:55.029Z,76.77
2018-12-20T14:27:22.788Z,73.00
2018-12-20T14:29:50.481Z,81.50
2018-12-20T14:32:19.093Z,92.57
2018-12-20T14:34:47.252Z,76.63
2018-12-20T14:37:14.871Z,93.50
2018-12-20T14:39:42.808Z,78.63
2018-12-20T14:42:10.416Z,81.90
2018-12-20T14:44:37.966Z,79.43
2018-12-20T14:47:05.562Z,72.40
2018-12-20T14:49:33.310Z,69.60
2018-12-20T14:52:00.902Z,60.60
2018-12-20T14:54:28.575Z,74.00
2018-12-20T14:56:56.169Z,65.67
2018-12-20T14:59:23.652Z,60.23
2018-12-20T15:01:51.557Z,62.63
2018-12-20T15:04:20.626Z,65.53
2018-12-20T15:06:48.546Z,66.47
2018-12-20T15:09:16.034Z,66.57
2018-12-20T15:11:43.721Z,62.40
2018-12-20T15:14:11.687Z,64.90
2018-12-20T15:16:39.224Z,72.17
2018-12-20T15:19:06.887Z,65.80
2018-12-20T15:21:34.534Z,67.70
2018-12-20T15:24:02.024Z,62.23
2018-12-20T15:26:29.892Z,60.33
2018-12-20T15:28:57.377Z,63.60
2018-12-20T15:31:25.085Z,66.00
2018-12-20T15:33:53.157Z,59.73
2018-12-20T15:36:20.827Z,64.10
2018-12-20T15:38:49.920Z,59.67
2018-12-20T15:41:18.338Z,59.43
2018-12-20T15:43:45.831Z,63.97
2018-12-20T15:46:13.747Z,58.33
2018-12-20T15:48:41.488Z,61.07
2018-12-20T15:51:08.977Z,64.07
2018-12-20T15:53:36.500Z,56.30
2018-12-20T15:56:04.049Z,48.67
2018-12-20T15:58:31.727Z,74.20
2018-12-20T16:00:59.230Z,66.30
2018-12-20T16:03:26.814Z,66.90
2018-12-20T16:05:54.408Z,66.20
2018-12-20T16:08:22.617Z,60.70
2018-12-20T16:10:50.854Z,70.53
2018-12-20T16:13:18.456Z,65.27
2018-12-20T16:15:45.945Z,64.17
2018-12-20T16:18:13.456Z,63.60
2018-12-20T16:20:40.943Z,62.73
2018-12-20T16:23:08.432Z,62.80
2018-12-20T16:25:35.925Z,65.53
2018-12-20T16:28:03.465Z,65.30
2018-12-20T16:30:31.271Z,65.87
2018-12-20T16:32:58.880Z,68.43
2018-12-20T16:35:26.367Z,72.80
2018-12-20T16:37:54.009Z,76.00
2018-12-20T16:40:21.536Z,65.00
2018-12-20T16:42:49.005Z,70.90
2018-12-20T16:45:16.604Z,66.57
2018-12-20T16:47:44.074Z,64.40
2018-12-20T16:50:11.588Z,70.23
2018-12-20T16:52:39.311Z,63.27
2018-12-20T16:55:07.587Z,75.33
2018-12-20T16:57:35.237Z,70.60
2018-12-20T17:00:03.813Z,73.93
2018-12-20T17:02:31.297Z,78.33
2018-12-20T17:04:58.827Z,74.87
2018-12-20T17:07:26.492Z,67.50
2018-12-20T17:09:53.964Z,68.03
2018-12-20T17:12:21.649Z,68.83
2018-12-20T17:14:49.233Z,66.13
2018-12-20T17:17:16.726Z,68.97
2018-12-20T17:19:44.365Z,70.60
2018-12-20T17:22:11.855Z,74.27
2018-12-20T17:24:39.613Z,69.60
2018-12-20T17:27:07.163Z,63.53
2018-12-20T17:29:34.653Z,60.03
2018-12-20T17:32:02.281Z,70.87
2018-12-20T17:34:29.959Z,71.43
2018-12-20T17:36:57.465Z,76.50
2018-12-20T17:39:24.993Z,65.67
2018-12-20T17:41:52.775Z,57.77
2018-12-20T17:44:20.349Z,77.50
2018-12-20T17:46:48.072Z,71.60
2018-12-20T17:49:15.617Z,73.90
2018-12-20T17:51:43.249Z,70.83
2018-12-20T17:54:11.369Z,72.97
2018-12-20T17:56:38.832Z,76.63
2018-12-20T17:59:06.458Z,78.83
2018-12-20T18:01:34.358Z,70.00
2018-12-20T18:04:01.814Z,85.33
2018-12-20T18:06:29.280Z,79.13
2018-12-20T18:08:56.791Z,74.27
2018-12-20T18:11:24.257Z,70.73
2018-12-20T18:13:51.807Z,71.83
2018-12-20T18:16:19.324Z,72.37
2018-12-20T18:18:46.790Z,64.17
2018-12-20T18:21:14.300Z,67.03
2018-12-20T18:23:42.000Z,66.47
2018-12-20T18:26:09.462Z,75.83
2018-12-20T18:28:36.993Z,71.57
2018-12-20T18:31:04.668Z,71.23
2018-12-20T18:33:32.169Z,72.40
2018-12-20T18:35:59.920Z,83.07
2018-12-20T18:38:27.410Z,76.10
2018-12-20T18:40:54.877Z,76.67
2018-12-20T18:43:22.411Z,73.73
2018-12-20T18:45:50.021Z,78.50
2018-12-20T18:48:17.516Z,70.70
2018-12-20T18:50:45.269Z,69.60
2018-12-20T18:53:12.878Z,67.33
2018-12-20T18:55:40.484Z,71.70
2018-12-20T18:58:08.243Z,75.10
2018-12-20T19:00:36.072Z,67.93
2018-12-20T19:03:03.725Z,69.40
2018-12-20T19:05:31.376Z,73.20
2018-12-20T19:07:58.964Z,75.63
2018-12-20T19:10:27.365Z,76.80
2018-12-20T19:12:54.865Z,80.80
2018-12-20T19:15:22.353Z,75.17
2018-12-20T19:17:50.000Z,75.00
2018-12-20T19:20:17.525Z,75.13
2018-12-20T19:22:45.100Z,77.00
2018-12-20T19:25:12.695Z,88.70
2018-12-20T19:27:40.233Z,79.83
2018-12-20T19:30:09.485Z,82.70
2018-12-20T19:32:37.236Z,81.37
2018-12-20T19:35:05.792Z,78.40
2018-12-20T19:37:33.360Z,79.40
2018-12-20T19:40:03.865Z,82.57
2018-12-20T19:42:31.521Z,87.60
2018-12-20T19:44:59.140Z,89.87
2018-12-20T19:47:26.748Z,87.27
2018-12-20T19:49:54.425Z,77.97
2018-12-20T19:52:21.929Z,86.93
2018-12-20T19:54:49.678Z,80.10
2018-12-20T19:57:17.312Z,81.40
2018-12-20T19:59:44.837Z,77.50
2018-12-20T20:02:12.366Z,70.90
2018-12-20T20:04:39.865Z,77.00
2018-12-20T20:07:07.617Z,83.50
2018-12-20T20:09:35.150Z,79.87
2018-12-20T20:12:02.805Z,73.23
2018-12-20T20:14:30.409Z,78.93
2018-12-20T20:16:57.926Z,78.20
2018-12-20T20:19:25.441Z,87.60
2018-12-20T20:21:53.043Z,76.30
2018-12-20T20:24:20.814Z,75.27
2018-12-20T20:26:48.366Z,85.50
2018-12-20T20:29:16.008Z,81.87
2018-12-20T20:31:43.747Z,80.87
2018-12-20T20:34:11.400Z,73.23
2018-12-20T20:36:39.158Z,78.00
2018-12-20T20:39:07.224Z,72.53
2018-12-20T20:41:35.253Z,76.47
2018-12-20T20:44:03.102Z,78.50
2018-12-20T20:46:30.694Z,79.47
2018-12-20T20:48:58.186Z,77.30
2018-12-20T20:51:25.916Z,75.53
2018-12-20T20:53:53.473Z,72.80
2018-12-20T20:56:21.055Z,69.53
2018-12-20T20:58:48.664Z,72.70
2018-12-20T21:01:16.156Z,79.47
2018-12-20T21:03:43.804Z,71.23
2018-12-20T21:06:11.323Z,75.77
2018-12-20T21:08:38.897Z,78.90
2018-12-20T21:11:06.571Z,83.93
2018-12-20T21:13:34.128Z,71.47
2018-12-20T21:16:01.926Z,75.33
2018-12-20T21:18:29.433Z,70.40
2018-12-20T21:20:56.949Z,72.97
2018-12-20T21:23:24.523Z,67.83
2018-12-20T21:25:52.148Z,69.07
2018-12-20T21:28:19.663Z,66.97
2018-12-20T21:30:47.436Z,67.63
2018-12-20T21:33:14.997Z,69.97
2018-12-20T21:35:42.629Z,69.30
2018-12-20T21:38:10.582Z,64.30
2018-12-20T21:40:38.325Z,66.07
2018-12-20T21:43:05.994Z,62.30
2018-12-20T21:45:33.517Z,60.17
2018-12-20T21:48:01.016Z,63.80
2018-12-20T21:50:28.532Z,62.87
2018-12-20T21:52:56.193Z,64.03
2018-12-20T21:55:23.998Z,70.50
2018-12-20T21:57:51.550Z,63.30
2018-12-20T22:00:19.150Z,64.00
2018-12-20T22:02:46.794Z,73.43
2018-12-20T22:05:14.289Z,69.23
2018-12-20T22:07:41.962Z,66.10
2018-12-20T22:10:09.560Z,69.37
2018-12-20T22:12:37.640Z,64.47
2018-12-20T22:15:05.780Z,72.40
2018-12-20T22:17:33.301Z,67.20
2018-12-20T22:20:00.856Z,74.13
2018-12-20T22:22:28.470Z,68.67
2018-12-20T22:24:56.285Z,66.33
2018-12-20T22:27:23.838Z,59.87
2018-12-20T22:29:51.440Z,64.20
2018-12-20T22:32:18.976Z,63.77
2018-12-20T22:34:46.758Z,60.07
2018-12-20T22:37:14.371Z,66.07
2018-12-20T22:39:41.905Z,64.47
2018-12-20T22:42:09.540Z,61.50
2018-12-20T22:44:37.230Z,65.60
2018-12-20T22:47:04.725Z,63.73
2018-12-20T22:49:32.456Z,66.73
2018-12-20T22:52:00.100Z,70.03
2018-12-20T22:54:27.688Z,57.63
2018-12-20T22:56:55.191Z,61.17
2018-12-20T22:59:22.696Z,60.27
2018-12-20T23:01:50.347Z,57.23
2018-12-20T23:04:17.917Z,57.27
2018-12-20T23:06:45.448Z,61.10
2018-12-20T23:09:13.087Z,58.27
2018-12-20T23:11:40.601Z,58.13
2018-12-20T23:14:08.265Z,51.37
2018-12-20T23:16:35.933Z,55.23
2018-12-20T23:19:03.538Z,51.30
2018-12-20T23:21:31.160Z,50.17
2018-12-20T23:23:58.781Z,54.13
2018-12-20T23:26:26.352Z,53.17
2018-12-20T23:28:53.932Z,53.10
2018-12-20T23:31:21.789Z,51.17
2018-12-20T23:33:49.505Z,48.43
2018-12-20T23:36:18.089Z,45.33
2018-12-20T23:38:45.669Z,49.83
2018-12-20T23:41:13.168Z,48.43
2018-12-20T23:43:40.736Z,52.40
2018-12-20T23:46:08.313Z,51.43
2018-12-20T23:48:35.806Z,51.57
2018-12-20T23:51:03.409Z,45.77
2018-12-20T23:53:31.145Z,55.40
2018-12-20T23:55:58.704Z,55.60
2018-12-20T23:58:26.274Z,48.40
